Time;durP1;ratioP1;P1;durP2;ratioP2;P2;SDS_P1;SDS_P2;PMS_P1;PMS_P2;Temp;Humidity;BMP_temperature;BMP_pressure;BME280_temperature;BME280_humidity;BME280_pressure;Samples;Min_cycle;Max_cycle;Signal;HPM_P1;HPM_P2
2022/06/11 00:01:16;;;;;;;7.00;6.30;;;13.50;99.90;;;;;;5040455;28;20780;-68
2022/06/11 00:03:43;;;;;;;7.83;6.90;;;13.50;99.90;;;;;;5033627;28;20452;-68
2022/06/11 00:06:11;;;;;;;9.30;6.87;;;13.40;99.90;;;;;;5032478;28;20871;-68
2022/06/11 00:08:39;;;;;;;8.67;6.70;;;13.40;99.90;;;;;;5032553;28;20763;-68
2022/06/11 00:11:07;;;;;;;9.27;7.17;;;13.40;99.90;;;;;;5031765;28;20444;-68
2022/06/11 00:13:35;;;;;;;8.00;7.17;;;13.50;99.90;;;;;;5032271;28;20548;-68
2022/06/11 00:16:03;;;;;;;9.00;6.80;;;13.50;99.90;;;;;;5031999;28;20480;-68
2022/06/11 00:18:32;;;;;;;8.00;6.53;;;13.40;99.90;;;;;;5031828;28;20448;-68
2022/06/11 00:20:59;;;;;;;7.70;6.90;;;13.50;99.90;;;;;;5031277;28;20471;-68
2022/06/11 00:23:27;;;;;;;7.33;6.30;;;13.50;99.90;;;;;;5031635;28;20873;-68
2022/06/11 00:25:54;;;;;;;10.50;6.50;;;13.40;99.90;;;;;;5030759;28;20551;-68
2022/06/11 00:28:21;;;;;;;8.97;7.77;;;13.40;99.90;;;;;;5031656;28;20455;-68
2022/06/11 00:30:49;;;;;;;9.27;7.63;;;13.40;99.90;;;;;;5032039;28;20456;-68
2022/06/11 00:33:16;;;;;;;7.80;6.60;;;13.30;99.90;;;;;;5031763;28;20445;-68
2022/06/11 00:35:43;;;;;;;8.53;6.70;;;13.30;99.90;;;;;;5031510;28;20471;-68
2022/06/11 00:38:11;;;;;;;7.93;6.90;;;13.30;99.90;;;;;;5031613;28;20959;-68
2022/06/11 00:40:41;;;;;;;8.47;7.30;;;13.30;99.90;;;;;;5032418;28;20556;-68
2022/06/11 00:43:08;;;;;;;7.53;6.50;;;13.30;99.90;;;;;;5031371;28;20615;-68
2022/06/11 00:45:44;;;;;;;8.13;6.80;;;13.20;99.90;;;;;;5030990;28;20548;-68
2022/06/11 00:48:17;;;;;;;7.37;6.27;;;13.10;99.90;;;;;;5031495;28;20459;-68
2022/06/11 00:50:46;;;;;;;11.20;6.93;;;13.10;99.90;;;;;;5030889;28;20551;-68
2022/06/11 00:53:18;;;;;;;7.93;6.47;;;13.20;99.90;;;;;;5031136;28;20536;-68
2022/06/11 00:55:47;;;;;;;8.80;6.80;;;13.20;99.90;;;;;;5031037;28;20969;-68
2022/06/11 00:58:18;;;;;;;7.53;6.77;;;13.00;99.90;;;;;;5030992;28;20445;-68
2022/06/11 01:00:48;;;;;;;8.53;7.10;;;12.90;99.90;;;;;;5031050;28;20448;-68
2022/06/11 01:03:19;;;;;;;7.73;6.03;;;12.90;99.90;;;;;;5030750;28;20897;-68
2022/06/11 01:05:50;;;;;;;11.97;6.80;;;13.00;99.90;;;;;;5031095;28;20825;-68
2022/06/11 01:08:36;;;;;;;9.27;7.13;;;12.90;99.90;;;;;;5031032;28;20527;-68
2022/06/11 01:11:18;;;;;;;10.93;6.80;;;12.90;99.90;;;;;;5030576;28;20519;-68
2022/06/11 01:13:57;;;;;;;9.80;7.53;;;12.90;99.90;;;;;;5031414;28;20520;-68
2022/06/11 01:16:34;;;;;;;8.53;6.60;;;12.90;99.90;;;;;;5031060;28;20480;-68
2022/06/11 01:19:19;;;;;;;8.67;6.60;;;12.90;99.90;;;;;;5030849;28;20449;-68
2022/06/11 01:21:57;;;;;;;7.80;7.00;;;12.80;99.90;;;;;;5030496;28;20455;-68
2022/06/11 01:24:39;;;;;;;10.57;6.70;;;12.90;99.90;;;;;;5030672;28;20444;-68
2022/06/11 01:27:29;;;;;;;7.47;6.70;;;12.90;99.90;;;;;;5030896;28;20894;-68
2022/06/11 01:30:01;;;;;;;7.57;6.77;;;12.90;99.90;;;;;;5030282;28;20455;-68
2022/06/11 01:32:41;;;;;;;10.07;6.90;;;12.90;99.90;;;;;;5030410;28;20472;-68
2022/06/11 01:35:18;;;;;;;7.57;6.63;;;12.90;99.90;;;;;;5030270;28;20977;-68
2022/06/11 01:37:51;;;;;;;7.80;6.70;;;12.70;99.90;;;;;;5030182;28;20441;-68
2022/06/11 01:40:29;;;;;;;10.03;7.00;;;12.70;99.90;;;;;;5030168;28;20443;-68
2022/06/11 01:43:00;;;;;;;7.60;6.70;;;12.70;99.90;;;;;;5030473;28;20495;-68
2022/06/11 01:45:31;;;;;;;8.10;6.60;;;12.60;99.90;;;;;;5030282;28;20548;-68
2022/06/11 01:47:59;;;;;;;7.77;6.90;;;12.50;99.90;;;;;;5030217;28;20814;-68
2022/06/11 01:50:28;;;;;;;10.43;7.53;;;12.50;99.90;;;;;;5029687;28;20544;-68
2022/06/11 01:53:31;;;;;;;9.10;6.57;;;12.60;99.90;;;;;;5030339;28;20441;-68
2022/06/11 01:56:19;;;;;;;9.03;7.67;;;12.60;99.90;;;;;;4994497;28;20476;-68
2022/06/11 01:59:07;;;;;;;9.23;7.30;;;12.50;99.90;;;;;;5029993;28;20527;-67
2022/06/11 02:01:49;;;;;;;10.57;6.23;;;12.60;99.90;;;;;;5029688;28;20441;-68
2022/06/11 02:04:23;;;;;;;8.03;7.00;;;12.50;99.90;;;;;;5030040;28;20444;-68
2022/06/11 02:06:58;;;;;;;8.33;7.53;;;12.50;99.90;;;;;;5029723;28;21064;-68
2022/06/11 02:09:35;;;;;;;10.00;6.90;;;12.50;99.90;;;;;;5029926;28;20777;-68
2022/06/11 02:12:11;;;;;;;9.63;7.83;;;12.60;99.90;;;;;;5029982;28;20528;-67
2022/06/11 02:14:44;;;;;;;8.40;6.73;;;12.70;99.90;;;;;;5029755;28;20463;-68
2022/06/11 02:17:17;;;;;;;8.50;7.60;;;12.50;99.90;;;;;;5029780;28;20445;-68
2022/06/11 02:19:48;;;;;;;7.60;6.50;;;12.40;99.90;;;;;;5029809;28;20454;-67
2022/06/11 02:22:22;;;;;;;9.03;7.60;;;12.40;99.90;;;;;;5029989;28;20573;-68
2022/06/11 02:24:54;;;;;;;9.00;7.33;;;12.40;99.90;;;;;;5029662;28;21039;-68
2022/06/11 02:27:26;;;;;;;9.10;7.30;;;12.40;99.90;;;;;;5029894;28;20810;-68
2022/06/11 02:29:55;;;;;;;6.80;6.10;;;12.40;99.90;;;;;;5030131;28;20933;-68
2022/06/11 02:32:27;;;;;;;10.17;7.53;;;12.40;99.90;;;;;;5029561;28;20447;-67
2022/06/11 02:34:57;;;;;;;9.17;8.37;;;12.40;99.90;;;;;;5029612;28;21038;-68
2022/06/11 02:37:28;;;;;;;8.00;6.63;;;12.30;99.90;;;;;;5032808;28;20891;-67
2022/06/11 02:39:58;;;;;;;8.90;7.20;;;12.40;99.90;;;;;;5029348;28;20445;-68
2022/06/11 02:42:27;;;;;;;8.77;7.17;;;12.30;99.90;;;;;;5029963;28;20489;-67
2022/06/11 02:44:54;;;;;;;7.77;6.93;;;12.20;99.90;;;;;;5029594;28;20905;-68
2022/06/11 02:47:23;;;;;;;8.47;7.40;;;12.10;99.90;;;;;;5029786;28;20448;-68
2022/06/11 02:49:51;;;;;;;9.60;6.87;;;12.20;99.90;;;;;;5033481;28;20452;-67
2022/06/11 02:52:23;;;;;;;7.80;6.50;;;12.20;99.90;;;;;;5033167;28;20481;-68
2022/06/11 02:54:51;;;;;;;9.80;7.17;;;12.20;99.90;;;;;;5033182;28;20449;-67
2022/06/11 02:57:22;;;;;;;6.80;6.10;;;12.20;99.90;;;;;;5033272;28;20445;-67
2022/06/11 02:59:50;;;;;;;6.60;5.97;;;12.20;99.90;;;;;;5032995;28;20452;-68
2022/06/11 03:02:17;;;;;;;12.70;7.17;;;12.30;99.90;;;;;;5032785;28;20933;-67
2022/06/11 03:04:45;;;;;;;7.83;6.50;;;12.30;99.90;;;;;;5032932;28;20528;-67
2022/06/11 03:07:13;;;;;;;8.40;6.00;;;12.30;99.90;;;;;;5032985;28;20459;-68
2022/06/11 03:09:41;;;;;;;7.77;5.50;;;12.20;99.90;;;;;;5032800;28;20453;-68
2022/06/11 03:12:10;;;;;;;6.70;5.60;;;12.20;99.90;;;;;;5032975;28;20445;-68
2022/06/11 03:14:37;;;;;;;6.87;5.57;;;12.20;99.90;;;;;;5033063;28;20441;-67
2022/06/11 03:17:05;;;;;;;7.47;5.50;;;12.20;99.90;;;;;;5032905;28;20445;-68
2022/06/11 03:19:33;;;;;;;7.57;5.80;;;12.10;99.90;;;;;;5032817;28;20460;-67
2022/06/11 03:22:01;;;;;;;6.10;5.03;;;12.10;99.90;;;;;;5032413;28;20536;-68
2022/06/11 03:24:29;;;;;;;6.73;5.60;;;12.00;99.90;;;;;;5032557;28;20571;-68
2022/06/11 03:26:57;;;;;;;7.23;5.70;;;12.00;99.90;;;;;;5032505;28;20496;-68
2022/06/11 03:29:25;;;;;;;7.57;5.70;;;11.90;99.90;;;;;;5032846;28;20475;-68
2022/06/11 03:31:53;;;;;;;7.43;5.67;;;12.00;99.90;;;;;;5032787;28;20441;-68
2022/06/11 03:34:20;;;;;;;7.07;6.00;;;11.90;99.90;;;;;;5032575;28;20437;-68
2022/06/11 03:36:48;;;;;;;6.07;5.47;;;11.90;99.90;;;;;;5032706;28;20472;-68
2022/06/11 03:39:16;;;;;;;5.90;5.30;;;11.90;99.90;;;;;;5033238;28;20531;-68
2022/06/11 03:41:44;;;;;;;5.43;4.93;;;11.90;99.90;;;;;;5032400;28;20448;-68
2022/06/11 03:44:10;;;;;;;6.93;5.40;;;12.00;99.90;;;;;;5032562;28;20832;-68
2022/06/11 03:46:37;;;;;;;6.83;5.73;;;12.10;99.90;;;;;;5032273;28;20974;-68
2022/06/11 03:49:05;;;;;;;7.33;5.27;;;12.20;99.90;;;;;;5032959;28;20548;-68
2022/06/11 03:51:32;;;;;;;7.97;5.90;;;12.20;99.90;;;;;;5031903;28;20968;-67
2022/06/11 03:53:59;;;;;;;7.90;6.03;;;12.20;99.90;;;;;;5032688;28;20539;-69
2022/06/11 03:56:28;;;;;;;6.93;6.23;;;12.20;99.90;;;;;;5032483;28;20834;-67
2022/06/11 03:58:55;;;;;;;6.77;5.80;;;12.20;99.90;;;;;;5032257;28;20447;-69
2022/06/11 04:01:23;;;;;;;6.50;5.70;;;12.30;99.90;;;;;;5031998;28;20444;-69
2022/06/11 04:03:52;;;;;;;6.93;5.97;;;12.30;99.90;;;;;;5032061;28;20473;-68
2022/06/11 04:06:22;;;;;;;5.93;5.33;;;12.20;99.90;;;;;;5032317;28;21045;-68
2022/06/11 04:08:49;;;;;;;9.00;6.10;;;12.30;99.90;;;;;;5074317;22;20480;-70
2022/06/11 04:11:17;;;;;;;9.07;6.03;;;12.50;99.90;;;;;;5050954;28;20846;-70
2022/06/11 04:13:47;;;;;;;6.67;5.97;;;12.50;99.90;;;;;;5051730;28;20446;-70
2022/06/11 04:16:28;;;;;;;7.13;6.03;;;12.50;99.90;;;;;;5050977;28;20448;-71
2022/06/11 04:18:56;;;;;;;5.63;5.00;;;12.60;99.90;;;;;;5050761;28;20448;-70
2022/06/11 04:21:24;;;;;;;7.77;5.93;;;12.60;99.90;;;;;;5050503;28;20471;-70
2022/06/11 04:23:54;;;;;;;8.47;5.90;;;12.70;99.90;;;;;;5051136;28;20487;-68
2022/06/11 04:26:24;;;;;;;8.20;5.40;;;12.70;99.90;;;;;;5050610;28;20444;-70
2022/06/11 04:28:53;;;;;;;7.53;6.23;;;12.80;99.90;;;;;;5051326;28;20451;-70
2022/06/11 04:31:20;;;;;;;6.17;5.57;;;12.90;99.90;;;;;;5050211;28;20468;-70
2022/06/11 04:33:48;;;;;;;6.60;5.90;;;13.00;99.90;;;;;;5051094;28;20456;-69
2022/06/11 04:36:16;;;;;;;6.80;6.03;;;13.10;99.90;;;;;;5050658;28;20456;-70
2022/06/11 04:38:44;;;;;;;7.73;6.20;;;13.10;99.90;;;;;;5051065;28;20470;-70
2022/06/11 04:41:11;;;;;;;8.23;6.30;;;13.10;99.90;;;;;;5050056;28;20471;-70
2022/06/11 04:43:38;;;;;;;6.40;5.70;;;13.20;99.90;;;;;;5051202;28;20482;-71
2022/06/11 04:46:06;;;;;;;8.63;6.50;;;13.30;99.90;;;;;;5050645;28;20450;-70
2022/06/11 04:48:33;;;;;;;7.20;6.10;;;13.40;99.90;;;;;;5050867;28;20456;-70
2022/06/11 04:51:02;;;;;;;7.33;6.50;;;13.40;99.90;;;;;;5049781;28;20468;-70
2022/06/11 04:53:29;;;;;;;6.27;5.00;;;13.50;99.90;;;;;;5050604;28;20549;-70
2022/06/11 04:55:56;;;;;;;7.00;5.67;;;13.50;99.90;;;;;;5050450;28;20456;-71
2022/06/11 04:58:23;;;;;;;6.10;5.50;;;13.60;99.90;;;;;;5050577;28;20949;-71
2022/06/11 05:00:51;;;;;;;6.33;5.70;;;13.70;99.90;;;;;;5049764;28;21011;-70
2022/06/11 05:03:19;;;;;;;6.97;5.70;;;13.70;99.90;;;;;;5050364;28;20476;-70
2022/06/11 05:05:46;;;;;;;6.17;5.57;;;13.80;99.90;;;;;;5049907;28;21024;-71
2022/06/11 05:08:15;;;;;;;6.63;5.23;;;13.90;99.90;;;;;;5050253;28;20460;-71
2022/06/11 05:10:43;;;;;;;8.30;6.23;;;14.00;99.90;;;;;;5048847;28;20452;-69
2022/06/11 05:13:11;;;;;;;6.30;5.70;;;14.10;99.90;;;;;;5050332;28;20450;-71
2022/06/11 05:15:40;;;;;;;5.90;5.13;;;14.20;99.90;;;;;;5049910;28;20452;-70
2022/06/11 05:18:08;;;;;;;8.13;5.30;;;14.30;99.90;;;;;;5050100;28;20812;-70
2022/06/11 05:20:36;;;;;;;6.93;4.93;;;14.40;99.90;;;;;;5049239;28;20478;-70
2022/06/11 05:23:04;;;;;;;6.20;5.60;;;14.50;99.90;;;;;;5050339;28;20456;-71
2022/06/11 05:25:31;;;;;;;6.93;5.50;;;14.60;99.90;;;;;;5049750;28;20961;-71
2022/06/11 05:27:58;;;;;;;5.33;4.83;;;14.70;99.90;;;;;;5050127;28;20456;-71
2022/06/11 05:30:28;;;;;;;5.90;5.17;;;14.80;99.90;;;;;;5049192;28;20890;-70
2022/06/11 05:32:55;;;;;;;5.57;5.00;;;14.90;99.90;;;;;;5049799;28;20452;-70
2022/06/11 05:35:25;;;;;;;6.33;5.17;;;15.00;99.90;;;;;;5049412;28;20883;-70
2022/06/11 05:37:56;;;;;;;6.67;5.13;;;15.10;99.90;;;;;;5050028;28;20444;-69
2022/06/11 05:40:25;;;;;;;4.80;4.30;;;15.30;99.90;;;;;;5049145;28;20838;-69
2022/06/11 05:42:52;;;;;;;6.03;4.80;;;15.40;99.90;;;;;;5049697;28;20813;-70
2022/06/11 05:45:22;;;;;;;8.43;4.90;;;15.50;99.90;;;;;;5049472;28;20440;-68
2022/06/11 05:47:51;;;;;;;7.73;5.07;;;15.60;99.90;;;;;;5049577;28;20456;-69
2022/06/11 05:50:22;;;;;;;6.17;5.00;;;15.70;99.90;;;;;;5049282;28;20817;-69
2022/06/11 05:52:49;;;;;;;4.60;4.10;;;15.80;99.90;;;;;;5049783;28;20468;-68
2022/06/11 05:55:20;;;;;;;4.63;4.10;;;15.90;99.90;;;;;;5049368;28;20448;-69
2022/06/11 05:57:49;;;;;;;4.63;3.70;;;16.10;99.90;;;;;;5049650;28;20470;-69
2022/06/11 06:00:19;;;;;;;4.57;4.13;;;16.20;99.90;;;;;;5048633;28;20539;-69
2022/06/11 06:02:47;;;;;;;5.40;4.47;;;16.30;99.90;;;;;;5049606;28;20463;-69
2022/06/11 06:05:16;;;;;;;5.07;4.10;;;16.40;99.90;;;;;;5049169;28;20495;-69
2022/06/11 06:07:43;;;;;;;4.97;4.10;;;16.50;99.90;;;;;;5049566;28;20466;-69
2022/06/11 06:10:10;;;;;;;4.80;4.20;;;16.60;99.90;;;;;;5048701;28;20942;-69
2022/06/11 06:12:39;;;;;;;5.77;3.80;;;16.70;99.90;;;;;;5049331;28;20459;-69
2022/06/11 06:15:09;;;;;;;5.10;3.93;;;16.70;99.90;;;;;;5049034;28;20448;-69
2022/06/11 06:17:35;;;;;;;4.53;4.13;;;16.80;99.90;;;;;;5049551;28;20456;-68
2022/06/11 06:20:03;;;;;;;6.40;4.50;;;16.90;99.90;;;;;;5048698;28;20451;-68
2022/06/11 06:22:30;;;;;;;5.57;4.23;;;17.00;99.90;;;;;;5049828;28;20467;-70
2022/06/11 06:24:57;;;;;;;4.70;3.90;;;17.10;99.90;;;;;;5052928;28;20494;-70
2022/06/11 06:27:23;;;;;;;5.17;4.17;;;17.20;99.90;;;;;;5053328;28;20452;-69
2022/06/11 06:29:52;;;;;;;5.47;3.60;;;17.30;99.90;;;;;;5053015;28;20531;-67
2022/06/11 06:32:19;;;;;;;4.40;3.60;;;17.40;99.90;;;;;;5053490;28;20459;-70
2022/06/11 06:34:46;;;;;;;4.83;4.20;;;17.60;99.90;;;;;;5053268;28;20451;-69
2022/06/11 06:37:13;;;;;;;5.00;4.50;;;17.80;99.90;;;;;;5053869;28;20474;-69
2022/06/11 06:39:40;;;;;;;5.43;4.00;;;17.80;99.90;;;;;;5053459;28;20467;-69
2022/06/11 06:42:08;;;;;;;4.97;3.83;;;17.90;99.90;;;;;;5052268;28;20896;-69
2022/06/11 06:44:35;;;;;;;4.23;3.57;;;18.00;99.90;;;;;;5053399;28;20571;-66
2022/06/11 06:47:04;;;;;;;6.93;5.00;;;18.10;99.90;;;;;;5053354;28;20448;-69
2022/06/11 06:49:31;;;;;;;5.60;3.70;;;18.20;99.90;;;;;;5053216;28;20452;-69
2022/06/11 06:51:58;;;;;;;5.43;3.77;;;18.30;99.90;;;;;;5052377;28;20465;-69
2022/06/11 06:54:24;;;;;;;4.40;3.80;;;18.50;99.90;;;;;;5052407;28;20443;-70
2022/06/11 06:56:51;;;;;;;4.53;3.43;;;18.60;99.90;;;;;;5053024;28;20538;-69
2022/06/11 06:59:18;;;;;;;4.33;3.37;;;18.80;99.90;;;;;;5052973;28;20824;-69
2022/06/11 07:01:45;;;;;;;6.77;3.33;;;18.90;99.90;;;;;;5051898;28;20478;-69
2022/06/11 07:04:14;;;;;;;6.30;4.43;;;18.90;99.90;;;;;;5052681;28;20534;-69
2022/06/11 07:06:41;;;;;;;5.73;3.80;;;19.00;99.90;;;;;;5052535;28;20455;-69
2022/06/11 07:09:09;;;;;;;3.63;3.23;;;19.10;99.90;;;;;;5052394;28;20954;-69
2022/06/11 07:11:35;;;;;;;4.23;3.30;;;19.20;99.90;;;;;;5051671;28;20464;-68
2022/06/11 07:14:02;;;;;;;4.63;4.13;;;19.40;99.90;;;;;;5052566;28;20650;-68
2022/06/11 07:16:33;;;;;;;5.17;3.80;;;19.50;99.90;;;;;;5052029;28;20444;-67
2022/06/11 07:19:04;;;;;;;5.77;3.60;;;19.60;99.90;;;;;;5052311;28;20459;-69
2022/06/11 07:21:36;;;;;;;4.70;3.90;;;19.70;99.90;;;;;;5051311;28;20471;-69
2022/06/11 07:24:06;;;;;;;7.80;3.67;;;19.90;99.90;;;;;;5052159;28;21036;-69
2022/06/11 07:26:50;;;;;;;4.93;3.27;;;20.00;99.90;;;;;;5051869;28;20965;-69
2022/06/11 07:29:20;;;;;;;4.73;3.80;;;20.00;99.90;;;;;;5052101;28;20984;-70
2022/06/11 07:31:50;;;;;;;5.53;3.60;;;20.20;99.90;;;;;;5051260;28;20479;-69
2022/06/11 07:34:19;;;;;;;5.27;4.00;;;20.30;99.90;;;;;;5051551;28;20818;-67
2022/06/11 07:36:48;;;;;;;7.93;3.37;;;20.40;99.90;;;;;;5052288;28;20841;-69
2022/06/11 07:39:15;;;;;;;5.67;3.37;;;20.60;99.90;;;;;;5052123;28;20884;-69
2022/06/11 07:41:42;;;;;;;5.00;3.63;;;20.70;99.90;;;;;;5051270;28;20460;-69
2022/06/11 07:44:09;;;;;;;5.67;3.10;;;20.70;99.90;;;;;;5051756;28;20476;-67
2022/06/11 07:46:35;;;;;;;5.80;3.23;;;20.80;99.90;;;;;;5051326;28;20455;-69
2022/06/11 07:49:02;;;;;;;5.10;3.50;;;21.00;99.90;;;;;;5051948;28;20448;-69
2022/06/11 07:51:29;;;;;;;4.80;3.30;;;21.00;99.90;;;;;;5051026;28;20467;-70
2022/06/11 07:53:57;;;;;;;5.90;3.87;;;21.20;99.90;;;;;;5051722;28;20451;-69
2022/06/11 07:56:24;;;;;;;4.37;3.97;;;21.20;99.90;;;;;;5051227;28;20491;-69
2022/06/11 07:58:52;;;;;;;4.50;3.10;;;21.40;99.90;;;;;;5051665;28;20446;-69
2022/06/11 08:01:20;;;;;;;5.63;3.50;;;21.50;99.90;;;;;;5050313;28;20448;-69
2022/06/11 08:03:47;;;;;;;10.83;3.60;;;21.60;99.90;;;;;;5051813;28;20292;-69
2022/06/11 08:06:14;;;;;;;3.80;2.90;;;21.80;99.90;;;;;;5051195;28;20820;-70
2022/06/11 08:08:41;;;;;;;4.60;3.70;;;21.80;99.90;;;;;;5051234;28;20462;-70
2022/06/11 08:11:09;;;;;;;4.60;3.00;;;21.90;99.90;;;;;;5050595;28;20904;-70
2022/06/11 08:13:36;;;;;;;8.43;3.37;;;22.00;99.90;;;;;;5051327;28;20444;-71
2022/06/11 08:16:04;;;;;;;4.40;3.50;;;22.00;99.90;;;;;;5051120;28;20448;-70
2022/06/11 08:18:32;;;;;;;4.23;3.50;;;22.20;99.90;;;;;;5051401;28;20864;-70
2022/06/11 08:20:59;;;;;;;4.40;3.40;;;22.40;99.90;;;;;;5050424;28;20468;-70
2022/06/11 08:23:26;;;;;;;5.23;3.27;;;22.50;99.90;;;;;;5051221;28;20448;-70
2022/06/11 08:25:53;;;;;;;3.53;3.10;;;22.60;99.90;;;;;;5050677;28;21042;-70
2022/06/11 08:28:22;;;;;;;4.43;3.40;;;22.70;99.90;;;;;;5051048;28;20854;-70
2022/06/11 08:30:50;;;;;;;3.97;2.70;;;22.80;99.90;;;;;;5050374;28;20480;-70
2022/06/11 08:33:17;;;;;;;6.07;3.20;;;23.00;99.90;;;;;;5051136;28;20458;-70
2022/06/11 08:35:44;;;;;;;4.37;2.60;;;23.00;99.90;;;;;;5050761;28;20444;-70
2022/06/11 08:38:12;;;;;;;4.03;3.20;;;23.10;99.90;;;;;;5050840;28;20891;-70
2022/06/11 08:40:43;;;;;;;3.67;3.00;;;23.00;99.90;;;;;;5049974;28;20459;-70
2022/06/11 08:43:18;;;;;;;5.17;3.37;;;23.10;99.90;;;;;;5051165;28;20467;-71
2022/06/11 08:45:49;;;;;;;3.63;2.80;;;23.20;99.90;;;;;;5049731;28;20483;-69
2022/06/11 08:48:26;;;;;;;4.20;2.83;;;23.20;99.90;;;;;;5050822;28;20798;-70
2022/06/11 08:51:06;;;;;;;4.70;2.80;;;23.30;99.90;;;;;;5049881;28;20474;-69
2022/06/11 08:53:35;;;;;;;4.10;3.20;;;23.40;99.90;;;;;;5050869;28;20447;-69
2022/06/11 08:56:02;;;;;;;6.00;3.33;;;23.40;99.90;;;;;;5050201;28;20979;-70
2022/06/11 08:58:45;;;;;;;4.67;3.40;;;23.50;99.90;;;;;;5050613;28;20543;-70
2022/06/11 09:01:21;;;;;;;7.23;3.53;;;23.60;99.90;;;;;;5049689;28;20854;-69
2022/06/11 09:04:10;;;;;;;3.83;2.80;;;23.70;99.30;;;;;;5050730;28;20918;-70
2022/06/11 09:06:59;;;;;;;5.27;2.83;;;23.80;99.40;;;;;;5050617;28;20432;-70
2022/06/11 09:09:36;;;;;;;4.10;2.83;;;23.80;98.80;;;;;;5050419;28;20972;-70
2022/06/11 09:12:22;;;;;;;5.10;3.80;;;23.90;99.80;;;;;;5050216;28;20478;-70
2022/06/11 09:15:18;;;;;;;5.83;3.10;;;23.90;98.90;;;;;;5050368;28;20884;-71
2022/06/11 09:18:06;;;;;;;4.10;3.13;;;24.00;99.00;;;;;;5042478;28;20456;-70
2022/06/11 09:20:40;;;;;;;4.70;2.70;;;24.00;99.50;;;;;;5049671;28;20444;-70
2022/06/11 09:23:30;;;;;;;6.23;3.43;;;24.20;99.90;;;;;;5050752;28;20542;-69
2022/06/11 09:26:15;;;;;;;6.27;2.50;;;24.30;99.20;;;;;;5050188;28;20480;-70
2022/06/11 09:28:49;;;;;;;3.73;3.27;;;24.50;99.30;;;;;;5050400;28;20577;-70
2022/06/11 09:31:21;;;;;;;7.40;3.10;;;24.70;98.50;;;;;;5049662;28;20468;-70
2022/06/11 09:33:54;;;;;;;4.80;3.10;;;24.70;99.50;;;;;;5050312;28;20455;-70
2022/06/11 09:36:27;;;;;;;4.73;3.10;;;24.60;97.20;;;;;;5049601;28;20446;-70
2022/06/11 09:39:06;;;;;;;5.30;3.10;;;24.50;98.30;;;;;;5049863;28;20534;-70
2022/06/11 09:41:42;;;;;;;5.03;3.70;;;24.60;99.70;;;;;;5049067;28;20471;-69
2022/06/11 09:44:32;;;;;;;3.70;3.17;;;24.90;98.30;;;;;;5049899;28;20483;-70
2022/06/11 09:47:04;;;;;;;10.90;3.10;;;25.20;97.40;;;;;;5049950;28;20456;-71
2022/06/11 09:49:42;;;;;;;5.80;3.10;;;25.40;96.00;;;;;;5049863;28;20454;-70
2022/06/11 09:52:16;;;;;;;3.97;3.17;;;25.60;97.60;;;;;;5049078;28;20550;-70
2022/06/11 09:54:53;;;;;;;4.83;2.80;;;25.80;96.10;;;;;;5049348;28;20971;-70
2022/06/11 09:57:36;;;;;;;5.67;2.70;;;25.90;96.20;;;;;;5049510;28;20447;-71
2022/06/11 10:00:14;;;;;;;5.50;2.40;;;26.40;95.30;;;;;;5049048;28;20424;-70
2022/06/11 10:02:47;;;;;;;6.97;2.87;;;26.80;91.10;;;;;;5049757;28;20459;-70
2022/06/11 10:05:23;;;;;;;6.67;3.00;;;27.10;91.70;;;;;;5049225;28;20494;-70
2022/06/11 10:07:57;;;;;;;3.30;2.50;;;27.50;91.00;;;;;;5049642;28;20470;-71
2022/06/11 10:10:27;;;;;;;4.60;2.50;;;28.50;89.60;;;;;;5048796;28;20458;-71
2022/06/11 10:12:58;;;;;;;5.50;2.83;;;28.80;86.90;;;;;;5049712;28;20460;-71
2022/06/11 10:15:31;;;;;;;6.50;2.83;;;29.00;83.30;;;;;;5049318;28;20444;-71
2022/06/11 10:18:04;;;;;;;4.50;2.70;;;28.90;83.50;;;;;;5049565;28;20467;-71
2022/06/11 10:20:36;;;;;;;5.13;2.50;;;29.40;83.20;;;;;;5048733;28;20448;-71
2022/06/11 10:23:10;;;;;;;3.67;2.27;;;29.40;83.20;;;;;;5049617;28;20947;-71
2022/06/11 10:25:40;;;;;;;5.13;2.77;;;30.30;85.30;;;;;;5048913;28;20486;-72
2022/06/11 10:28:14;;;;;;;4.63;2.30;;;30.80;77.50;;;;;;5049532;28;20482;-71
2022/06/11 10:30:46;;;;;;;4.20;2.60;;;31.60;79.10;;;;;;5048381;28;20930;-72
2022/06/11 10:33:21;;;;;;;4.70;2.40;;;32.30;75.40;;;;;;5049203;28;21005;-72
2022/06/11 10:35:56;;;;;;;6.13;2.90;;;32.80;72.40;;;;;;5049165;28;20450;-71
2022/06/11 10:38:40;;;;;;;5.40;2.13;;;33.50;70.90;;;;;;5049299;28;20983;-72
2022/06/11 10:41:15;;;;;;;6.10;2.47;;;33.60;64.70;;;;;;5046859;28;20476;-71
2022/06/11 10:43:47;;;;;;;4.17;2.50;;;33.70;68.30;;;;;;5049336;28;20447;-71
2022/06/11 10:46:15;;;;;;;3.63;2.27;;;33.50;63.50;;;;;;5048951;28;20484;-72
2022/06/11 10:48:42;;;;;;;3.27;2.00;;;33.30;61.80;;;;;;5049127;28;20447;-71
2022/06/11 10:51:16;;;;;;;2.50;2.10;;;32.90;60.20;;;;;;5048232;28;20844;-71
2022/06/11 10:53:58;;;;;;;5.30;2.20;;;32.90;65.20;;;;;;5049128;28;20454;-71
2022/06/11 10:56:31;;;;;;;5.53;2.40;;;33.00;68.20;;;;;;5048953;28;20477;-70
2022/06/11 10:59:03;;;;;;;3.07;2.00;;;33.40;65.90;;;;;;5049176;28;20470;-72
2022/06/11 11:01:34;;;;;;;4.93;1.90;;;33.90;62.50;;;;;;5048247;28;20476;-71
2022/06/11 11:04:19;;;;;;;4.27;2.53;;;34.00;59.70;;;;;;5049429;28;21104;-70
2022/06/11 11:06:47;;;;;;;3.77;2.40;;;33.10;66.60;;;;;;5049218;28;20489;-71
2022/06/11 11:09:21;;;;;;;4.67;2.33;;;32.00;60.00;;;;;;5050162;28;20456;-70
2022/06/11 11:11:51;;;;;;;5.77;2.40;;;30.70;64.10;;;;;;5051739;28;20954;-70
2022/06/11 11:14:20;;;;;;;5.57;2.83;;;30.20;67.10;;;;;;5052210;28;20436;-71
2022/06/11 11:16:52;;;;;;;5.50;2.53;;;30.00;68.30;;;;;;5052409;28;20969;-71
2022/06/11 11:19:24;;;;;;;3.40;2.50;;;29.40;67.50;;;;;;5052610;28;20485;-70
2022/06/11 11:21:56;;;;;;;4.57;2.60;;;29.80;67.20;;;;;;5051475;28;20474;-68
2022/06/11 11:24:27;;;;;;;4.70;2.20;;;30.10;70.90;;;;;;5052033;28;20444;-71
2022/06/11 11:26:57;;;;;;;4.80;2.70;;;31.10;67.90;;;;;;5052060;28;20501;-71
2022/06/11 11:29:27;;;;;;;4.40;2.77;;;32.20;71.00;;;;;;5051895;28;20452;-70
2022/06/11 11:31:58;;;;;;;3.60;2.63;;;32.40;63.20;;;;;;5051554;28;20514;-71
2022/06/11 11:34:27;;;;;;;5.57;2.10;;;32.00;61.70;;;;;;5051692;28;20951;-71
2022/06/11 11:37:16;;;;;;;4.13;2.10;;;31.90;61.80;;;;;;5052167;28;20509;-71
2022/06/11 11:39:50;;;;;;;3.77;2.33;;;32.50;64.20;;;;;;5051683;28;20454;-71
2022/06/11 11:42:19;;;;;;;6.60;2.43;;;32.70;58.90;;;;;;5051461;28;20974;-71
2022/06/11 11:44:49;;;;;;;4.70;2.30;;;32.50;58.70;;;;;;5052030;28;20448;-72
2022/06/11 11:47:22;;;;;;;3.30;1.67;;;32.50;64.40;;;;;;5052056;28;20444;-71
2022/06/11 11:49:56;;;;;;;4.37;2.13;;;33.20;62.90;;;;;;5051295;28;20455;-71
2022/06/11 11:52:26;;;;;;;4.60;2.40;;;33.70;57.50;;;;;;5051793;28;21004;-71
2022/06/11 11:55:01;;;;;;;3.80;2.40;;;33.70;57.80;;;;;;5051981;28;20447;-71
2022/06/11 11:57:31;;;;;;;3.57;2.20;;;33.60;57.30;;;;;;5052291;28;21160;-71
2022/06/11 12:00:02;;;;;;;4.20;2.30;;;33.80;58.70;;;;;;5051345;28;21012;-71
2022/06/11 12:02:33;;;;;;;3.33;2.10;;;34.30;59.10;;;;;;5052073;28;20513;-71
2022/06/11 12:05:08;;;;;;;4.67;1.90;;;34.20;56.20;;;;;;5051442;28;21060;-71
2022/06/11 12:07:41;;;;;;;5.63;1.90;;;33.60;56.60;;;;;;5051883;28;20881;-69
2022/06/11 12:10:19;;;;;;;3.63;1.93;;;33.80;58.60;;;;;;5050912;28;20448;-71
2022/06/11 12:12:50;;;;;;;3.00;1.97;;;34.30;59.20;;;;;;5051534;28;20468;-71
2022/06/11 12:15:20;;;;;;;5.83;2.00;;;34.90;61.50;;;;;;5051080;28;20452;-71
2022/06/11 12:17:52;;;;;;;5.80;2.03;;;35.80;58.60;;;;;;5051550;28;20447;-71
2022/06/11 12:20:40;;;;;;;6.90;2.30;;;34.90;52.90;;;;;;5050726;28;20448;-70
2022/06/11 12:23:20;;;;;;;3.90;2.60;;;34.40;54.40;;;;;;5051271;28;20444;-71
2022/06/11 12:25:52;;;;;;;3.30;2.00;;;33.30;54.80;;;;;;5050710;28;20468;-70
2022/06/11 12:28:23;;;;;;;4.70;2.60;;;32.80;57.90;;;;;;5051170;28;20448;-71
2022/06/11 12:30:51;;;;;;;3.93;2.10;;;33.20;57.60;;;;;;5050440;28;20468;-71
2022/06/11 12:33:19;;;;;;;3.80;2.40;;;33.50;56.20;;;;;;5051161;28;20448;-70
2022/06/11 12:35:52;;;;;;;3.87;2.37;;;33.30;58.60;;;;;;5050620;28;20467;-71
2022/06/11 12:38:33;;;;;;;5.90;2.53;;;33.80;59.50;;;;;;5050958;28;20454;-71
2022/06/11 12:41:24;;;;;;;2.60;2.00;;;34.10;55.60;;;;;;5050099;28;20490;-71
2022/06/11 12:43:57;;;;;;;3.03;2.17;;;33.50;55.60;;;;;;5035036;28;20470;-71
2022/06/11 12:46:33;;;;;;;3.23;2.30;;;33.30;57.20;;;;;;5050303;28;20499;-71
2022/06/11 12:49:15;;;;;;;4.23;2.73;;;33.10;58.40;;;;;;5050748;28;20452;-71
2022/06/11 12:51:58;;;;;;;6.10;2.70;;;32.90;56.60;;;;;;5049955;28;20841;-70
2022/06/11 12:54:38;;;;;;;6.40;2.73;;;32.30;58.00;;;;;;5050479;28;20441;-71
2022/06/11 12:57:26;;;;;;;4.40;2.50;;;32.40;59.40;;;;;;5050471;28;20435;-70
2022/06/11 13:00:09;;;;;;;3.80;2.40;;;32.80;57.30;;;;;;5049974;28;20439;-70
2022/06/11 13:02:53;;;;;;;4.20;2.80;;;31.70;56.90;;;;;;5050488;28;20472;-71
2022/06/11 13:05:55;;;;;;;4.43;2.87;;;31.20;57.80;;;;;;5049945;28;20458;-71
2022/06/11 13:08:36;;;;;;;3.67;2.70;;;31.90;57.50;;;;;;5050408;28;20573;-71